sensor_id;sensor_type;location;lat;lon;timestamp;P1;durP1;ratioP1;P2;durP2;ratioP2
20241;SDS011;10279;46.388;8.116;2023-02-28T00:00:36;6.60;;;5.37;;
20241;SDS011;10279;46.388;8.116;2023-02-28T00:03:04;6.43;;;5.30;;
20241;SDS011;10279;46.388;8.116;2023-02-28T00:05:32;7.90;;;5.37;;
20241;SDS011;10279;46.388;8.116;2023-02-28T00:08:00;7.67;;;5.47;;
20241;SDS011;10279;46.388;8.116;2023-02-28T00:10:28;7.97;;;5.73;;
20241;SDS011;10279;46.388;8.116;2023-02-28T00:12:59;8.13;;;5.47;;
20241;SDS011;10279;46.388;8.116;2023-02-28T00:15:28;9.93;;;5.80;;
20241;SDS011;10279;46.388;8.116;2023-02-28T00:17:55;8.23;;;5.87;;
20241;SDS011;10279;46.388;8.116;2023-02-28T00:20:23;6.23;;;5.53;;
20241;SDS011;10279;46.388;8.116;2023-02-28T00:22:51;7.53;;;5.63;;
20241;SDS011;10279;46.388;8.116;2023-02-28T00:25:25;7.43;;;6.23;;
20241;SDS011;10279;46.388;8.116;2023-02-28T00:27:52;7.47;;;6.10;;
20241;SDS011;10279;46.388;8.116;2023-02-28T00:30:20;8.00;;;6.13;;
20241;SDS011;10279;46.388;8.116;2023-02-28T00:32:49;6.73;;;5.70;;
20241;SDS011;10279;46.388;8.116;2023-02-28T00:35:17;7.67;;;5.87;;
20241;SDS011;10279;46.388;8.116;2023-02-28T00:37:44;7.70;;;5.50;;
20241;SDS011;10279;46.388;8.116;2023-02-28T00:40:11;8.37;;;5.27;;
20241;SDS011;10279;46.388;8.116;2023-02-28T00:42:39;7.53;;;6.10;;
20241;SDS011;10279;46.388;8.116;2023-02-28T00:45:06;7.00;;;6.17;;
20241;SDS011;10279;46.388;8.116;2023-02-28T00:47:34;9.07;;;5.97;;
20241;SDS011;10279;46.388;8.116;2023-02-28T00:50:02;7.47;;;5.97;;
20241;SDS011;10279;46.388;8.116;2023-02-28T00:52:30;7.90;;;5.80;;
20241;SDS011;10279;46.388;8.116;2023-02-28T00:54:57;8.80;;;5.67;;
20241;SDS011;10279;46.388;8.116;2023-02-28T00:57:24;8.47;;;5.93;;
20241;SDS011;10279;46.388;8.116;2023-02-28T01:05:02;7.13;;;5.43;;
20241;SDS011;10279;46.388;8.116;2023-02-28T01:07:30;7.07;;;5.87;;
20241;SDS011;10279;46.388;8.116;2023-02-28T01:09:57;6.17;;;5.33;;
20241;SDS011;10279;46.388;8.116;2023-02-28T01:12:25;8.00;;;5.87;;
20241;SDS011;10279;46.388;8.116;2023-02-28T01:14:52;7.97;;;5.60;;
20241;SDS011;10279;46.388;8.116;2023-02-28T01:17:19;7.87;;;5.60;;
20241;SDS011;10279;46.388;8.116;2023-02-28T01:19:46;7.90;;;5.90;;
20241;SDS011;10279;46.388;8.116;2023-02-28T01:22:13;8.10;;;5.40;;
20241;SDS011;10279;46.388;8.116;2023-02-28T01:24:40;6.60;;;5.37;;
20241;SDS011;10279;46.388;8.116;2023-02-28T01:27:07;8.77;;;5.80;;
20241;SDS011;10279;46.388;8.116;2023-02-28T01:29:34;7.33;;;5.93;;
20241;SDS011;10279;46.388;8.116;2023-02-28T01:32:01;9.67;;;5.93;;
20241;SDS011;10279;46.388;8.116;2023-02-28T01:34:28;7.63;;;5.93;;
20241;SDS011;10279;46.388;8.116;2023-02-28T01:36:55;7.33;;;5.60;;
20241;SDS011;10279;46.388;8.116;2023-02-28T01:39:25;8.60;;;6.53;;
20241;SDS011;10279;46.388;8.116;2023-02-28T01:41:53;8.30;;;6.10;;
20241;SDS011;10279;46.388;8.116;2023-02-28T01:47:34;7.93;;;5.87;;
20241;SDS011;10279;46.388;8.116;2023-02-28T01:50:06;9.80;;;6.43;;
20241;SDS011;10279;46.388;8.116;2023-02-28T01:52:37;9.87;;;6.83;;
20241;SDS011;10279;46.388;8.116;2023-02-28T01:55:06;8.07;;;6.40;;
20241;SDS011;10279;46.388;8.116;2023-02-28T01:57:36;8.60;;;6.20;;
20241;SDS011;10279;46.388;8.116;2023-02-28T02:00:15;12.60;;;7.10;;
20241;SDS011;10279;46.388;8.116;2023-02-28T02:02:47;8.77;;;6.57;;
20241;SDS011;10279;46.388;8.116;2023-02-28T02:05:22;7.60;;;6.00;;
20241;SDS011;10279;46.388;8.116;2023-02-28T02:07:52;8.87;;;6.43;;
20241;SDS011;10279;46.388;8.116;2023-02-28T02:13:15;9.80;;;6.97;;
20241;SDS011;10279;46.388;8.116;2023-02-28T02:18:23;12.90;;;7.27;;
20241;SDS011;10279;46.388;8.116;2023-02-28T02:41:36;8.90;;;6.90;;
20241;SDS011;10279;46.388;8.116;2023-02-28T02:43:53;8.83;;;6.33;;
20241;SDS011;10279;46.388;8.116;2023-02-28T02:46:29;8.00;;;6.17;;
20241;SDS011;10279;46.388;8.116;2023-02-28T02:49:03;8.17;;;6.17;;
20241;SDS011;10279;46.388;8.116;2023-02-28T02:51:34;8.37;;;6.53;;
20241;SDS011;10279;46.388;8.116;2023-02-28T02:56:42;7.83;;;6.30;;
20241;SDS011;10279;46.388;8.116;2023-02-28T02:59:13;7.33;;;5.83;;
20241;SDS011;10279;46.388;8.116;2023-02-28T03:01:59;6.53;;;5.50;;
20241;SDS011;10279;46.388;8.116;2023-02-28T03:04:30;6.97;;;5.57;;
20241;SDS011;10279;46.388;8.116;2023-02-28T03:07:01;8.13;;;5.97;;
20241;SDS011;10279;46.388;8.116;2023-02-28T03:09:33;8.47;;;6.40;;
20241;SDS011;10279;46.388;8.116;2023-02-28T03:12:02;6.53;;;5.27;;
20241;SDS011;10279;46.388;8.116;2023-02-28T03:22:37;6.60;;;5.33;;
20241;SDS011;10279;46.388;8.116;2023-02-28T03:31:11;6.57;;;4.83;;
20241;SDS011;10279;46.388;8.116;2023-02-28T03:33:58;8.50;;;5.77;;
20241;SDS011;10279;46.388;8.116;2023-02-28T03:36:27;7.93;;;5.47;;
20241;SDS011;10279;46.388;8.116;2023-02-28T03:47:11;8.90;;;5.50;;
20241;SDS011;10279;46.388;8.116;2023-02-28T03:49:49;7.77;;;5.13;;
20241;SDS011;10279;46.388;8.116;2023-02-28T03:52:34;7.70;;;5.20;;
20241;SDS011;10279;46.388;8.116;2023-02-28T03:55:12;8.47;;;5.93;;
20241;SDS011;10279;46.388;8.116;2023-02-28T03:57:58;8.87;;;5.27;;
20241;SDS011;10279;46.388;8.116;2023-02-28T04:00:59;10.43;;;5.60;;
20241;SDS011;10279;46.388;8.116;2023-02-28T04:03:37;10.97;;;5.03;;
20241;SDS011;10279;46.388;8.116;2023-02-28T04:06:05;7.87;;;5.53;;
20241;SDS011;10279;46.388;8.116;2023-02-28T04:08:39;9.07;;;5.83;;
20241;SDS011;10279;46.388;8.116;2023-02-28T04:11:11;11.60;;;5.80;;
20241;SDS011;10279;46.388;8.116;2023-02-28T04:14:01;6.90;;;5.03;;
20241;SDS011;10279;46.388;8.116;2023-02-28T04:16:33;6.07;;;4.37;;
20241;SDS011;10279;46.388;8.116;2023-02-28T04:19:02;5.67;;;3.63;;
20241;SDS011;10279;46.388;8.116;2023-02-28T04:21:32;6.53;;;4.50;;
20241;SDS011;10279;46.388;8.116;2023-02-28T04:24:01;8.73;;;4.77;;
20241;SDS011;10279;46.388;8.116;2023-02-28T04:26:30;7.13;;;4.50;;
20241;SDS011;10279;46.388;8.116;2023-02-28T04:28:58;8.20;;;3.67;;
20241;SDS011;10279;46.388;8.116;2023-02-28T04:31:26;4.70;;;3.13;;
20241;SDS011;10279;46.388;8.116;2023-02-28T04:33:54;3.67;;;2.73;;
20241;SDS011;10279;46.388;8.116;2023-02-28T04:36:21;6.30;;;3.40;;
20241;SDS011;10279;46.388;8.116;2023-02-28T04:38:49;5.90;;;3.87;;
20241;SDS011;10279;46.388;8.116;2023-02-28T04:41:17;3.93;;;3.27;;
20241;SDS011;10279;46.388;8.116;2023-02-28T04:43:44;5.83;;;3.33;;
20241;SDS011;10279;46.388;8.116;2023-02-28T04:46:11;7.30;;;3.73;;
20241;SDS011;10279;46.388;8.116;2023-02-28T04:48:38;4.87;;;3.70;;
20241;SDS011;10279;46.388;8.116;2023-02-28T04:51:08;7.67;;;4.23;;
20241;SDS011;10279;46.388;8.116;2023-02-28T04:53:40;4.50;;;3.17;;
20241;SDS011;10279;46.388;8.116;2023-02-28T04:56:10;6.80;;;3.43;;
20241;SDS011;10279;46.388;8.116;2023-02-28T04:58:39;4.13;;;2.90;;
20241;SDS011;10279;46.388;8.116;2023-02-28T05:01:17;7.40;;;2.70;;
20241;SDS011;10279;46.388;8.116;2023-02-28T05:03:49;2.97;;;2.10;;
20241;SDS011;10279;46.388;8.116;2023-02-28T05:06:18;2.60;;;1.70;;
20241;SDS011;10279;46.388;8.116;2023-02-28T05:08:46;1.70;;;1.50;;
20241;SDS011;10279;46.388;8.116;2023-02-28T05:11:18;4.63;;;2.23;;
20241;SDS011;10279;46.388;8.116;2023-02-28T05:13:46;2.40;;;2.20;;
20241;SDS011;10279;46.388;8.116;2023-02-28T05:16:15;3.10;;;2.63;;
20241;SDS011;10279;46.388;8.116;2023-02-28T05:18:43;3.27;;;2.47;;
20241;SDS011;10279;46.388;8.116;2023-02-28T05:23:54;3.67;;;2.17;;
20241;SDS011;10279;46.388;8.116;2023-02-28T05:26:22;2.33;;;2.10;;
20241;SDS011;10279;46.388;8.116;2023-02-28T05:28:50;1.40;;;1.20;;
20241;SDS011;10279;46.388;8.116;2023-02-28T05:31:17;1.53;;;1.10;;
20241;SDS011;10279;46.388;8.116;2023-02-28T05:33:45;1.80;;;1.23;;
20241;SDS011;10279;46.388;8.116;2023-02-28T05:36:12;0.87;;;0.87;;
20241;SDS011;10279;46.388;8.116;2023-02-28T05:38:40;3.50;;;1.60;;
20241;SDS011;10279;46.388;8.116;2023-02-28T05:41:08;3.50;;;1.80;;
20241;SDS011;10279;46.388;8.116;2023-02-28T05:43:37;3.40;;;1.90;;
20241;SDS011;10279;46.388;8.116;2023-02-28T05:46:05;1.80;;;1.70;;
20241;SDS011;10279;46.388;8.116;2023-02-28T05:48:34;3.10;;;2.00;;
20241;SDS011;10279;46.388;8.116;2023-02-28T05:51:05;2.03;;;1.80;;
20241;SDS011;10279;46.388;8.116;2023-02-28T05:53:34;1.50;;;1.30;;
20241;SDS011;10279;46.388;8.116;2023-02-28T05:56:02;1.03;;;0.90;;
20241;SDS011;10279;46.388;8.116;2023-02-28T05:58:30;1.43;;;1.00;;
20241;SDS011;10279;46.388;8.116;2023-02-28T06:00:58;1.60;;;1.20;;
20241;SDS011;10279;46.388;8.116;2023-02-28T06:03:26;1.00;;;0.90;;
20241;SDS011;10279;46.388;8.116;2023-02-28T06:05:54;2.63;;;1.00;;
20241;SDS011;10279;46.388;8.116;2023-02-28T06:08:21;1.13;;;0.90;;
20241;SDS011;10279;46.388;8.116;2023-02-28T06:10:48;1.50;;;0.90;;
20241;SDS011;10279;46.388;8.116;2023-02-28T06:13:15;1.50;;;1.00;;
20241;SDS011;10279;46.388;8.116;2023-02-28T06:15:42;1.17;;;0.90;;
20241;SDS011;10279;46.388;8.116;2023-02-28T06:18:09;1.10;;;0.90;;
20241;SDS011;10279;46.388;8.116;2023-02-28T06:20:36;1.97;;;1.00;;
20241;SDS011;10279;46.388;8.116;2023-02-28T06:23:07;1.20;;;0.90;;
20241;SDS011;10279;46.388;8.116;2023-02-28T06:25:34;1.20;;;1.07;;
20241;SDS011;10279;46.388;8.116;2023-02-28T06:28:01;5.97;;;1.30;;
20241;SDS011;10279;46.388;8.116;2023-02-28T06:30:28;5.37;;;1.00;;
20241;SDS011;10279;46.388;8.116;2023-02-28T06:32:56;2.10;;;1.07;;
20241;SDS011;10279;46.388;8.116;2023-02-28T06:35:23;2.30;;;1.00;;
20241;SDS011;10279;46.388;8.116;2023-02-28T06:37:50;0.80;;;0.80;;
20241;SDS011;10279;46.388;8.116;2023-02-28T06:40:17;1.07;;;0.97;;
20241;SDS011;10279;46.388;8.116;2023-02-28T06:42:45;1.20;;;1.10;;
20241;SDS011;10279;46.388;8.116;2023-02-28T06:45:12;1.17;;;0.70;;
20241;SDS011;10279;46.388;8.116;2023-02-28T06:47:40;1.30;;;1.20;;
20241;SDS011;10279;46.388;8.116;2023-02-28T06:50:09;1.03;;;0.80;;
20241;SDS011;10279;46.388;8.116;2023-02-28T06:52:37;1.70;;;1.30;;
20241;SDS011;10279;46.388;8.116;2023-02-28T06:55:06;1.40;;;1.10;;
20241;SDS011;10279;46.388;8.116;2023-02-28T06:57:34;2.03;;;0.90;;
20241;SDS011;10279;46.388;8.116;2023-02-28T07:00:08;2.67;;;0.93;;
20241;SDS011;10279;46.388;8.116;2023-02-28T07:02:36;2.83;;;1.10;;
20241;SDS011;10279;46.388;8.116;2023-02-28T07:05:06;1.27;;;0.90;;
20241;SDS011;10279;46.388;8.116;2023-02-28T07:07:34;1.57;;;0.83;;
20241;SDS011;10279;46.388;8.116;2023-02-28T07:10:04;2.93;;;1.13;;
20241;SDS011;10279;46.388;8.116;2023-02-28T07:12:32;1.80;;;1.10;;
20241;SDS011;10279;46.388;8.116;2023-02-28T07:14:59;2.63;;;1.30;;
20241;SDS011;10279;46.388;8.116;2023-02-28T07:17:26;1.30;;;0.80;;
20241;SDS011;10279;46.388;8.116;2023-02-28T07:19:53;1.17;;;0.80;;
20241;SDS011;10279;46.388;8.116;2023-02-28T07:22:20;1.77;;;1.30;;
20241;SDS011;10279;46.388;8.116;2023-02-28T07:24:47;1.50;;;1.00;;
20241;SDS011;10279;46.388;8.116;2023-02-28T07:27:14;2.13;;;0.93;;
20241;SDS011;10279;46.388;8.116;2023-02-28T07:29:49;1.20;;;1.10;;
20241;SDS011;10279;46.388;8.116;2023-02-28T07:32:17;5.80;;;1.27;;
20241;SDS011;10279;46.388;8.116;2023-02-28T07:34:45;3.60;;;1.40;;
20241;SDS011;10279;46.388;8.116;2023-02-28T07:37:12;1.57;;;1.17;;
20241;SDS011;10279;46.388;8.116;2023-02-28T07:39:39;4.80;;;1.03;;
20241;SDS011;10279;46.388;8.116;2023-02-28T07:42:08;1.53;;;1.07;;
20241;SDS011;10279;46.388;8.116;2023-02-28T07:44:40;1.03;;;0.80;;
20241;SDS011;10279;46.388;8.116;2023-02-28T07:47:10;0.70;;;0.70;;
20241;SDS011;10279;46.388;8.116;2023-02-28T07:49:37;1.17;;;1.03;;
20241;SDS011;10279;46.388;8.116;2023-02-28T07:52:05;2.23;;;0.97;;
20241;SDS011;10279;46.388;8.116;2023-02-28T07:54:33;2.30;;;1.07;;
20241;SDS011;10279;46.388;8.116;2023-02-28T07:57:00;0.80;;;0.80;;
20241;SDS011;10279;46.388;8.116;2023-02-28T07:59:27;0.83;;;0.83;;
20241;SDS011;10279;46.388;8.116;2023-02-28T08:01:57;1.20;;;1.00;;
20241;SDS011;10279;46.388;8.116;2023-02-28T08:04:25;1.40;;;1.27;;
20241;SDS011;10279;46.388;8.116;2023-02-28T08:06:53;2.17;;;1.90;;
20241;SDS011;10279;46.388;8.116;2023-02-28T08:09:20;2.67;;;1.40;;
20241;SDS011;10279;46.388;8.116;2023-02-28T08:11:47;0.93;;;0.83;;
20241;SDS011;10279;46.388;8.116;2023-02-28T08:14:14;1.07;;;1.00;;
20241;SDS011;10279;46.388;8.116;2023-02-28T08:16:41;1.47;;;1.03;;
20241;SDS011;10279;46.388;8.116;2023-02-28T08:19:09;0.80;;;0.80;;
20241;SDS011;10279;46.388;8.116;2023-02-28T08:21:36;1.73;;;0.97;;
20241;SDS011;10279;46.388;8.116;2023-02-28T08:24:03;1.40;;;1.00;;
20241;SDS011;10279;46.388;8.116;2023-02-28T08:26:31;1.00;;;0.80;;
20241;SDS011;10279;46.388;8.116;2023-02-28T08:28:58;1.00;;;0.90;;
20241;SDS011;10279;46.388;8.116;2023-02-28T08:31:27;1.60;;;0.73;;
20241;SDS011;10279;46.388;8.116;2023-02-28T08:33:55;0.63;;;0.63;;
20241;SDS011;10279;46.388;8.116;2023-02-28T08:36:25;1.27;;;0.70;;
20241;SDS011;10279;46.388;8.116;2023-02-28T08:38:56;2.90;;;1.00;;
20241;SDS011;10279;46.388;8.116;2023-02-28T08:41:23;2.50;;;1.10;;
20241;SDS011;10279;46.388;8.116;2023-02-28T08:43:50;1.20;;;0.90;;
20241;SDS011;10279;46.388;8.116;2023-02-28T08:46:17;1.80;;;1.00;;
20241;SDS011;10279;46.388;8.116;2023-02-28T08:48:45;2.03;;;1.10;;
20241;SDS011;10279;46.388;8.116;2023-02-28T08:51:13;1.17;;;0.90;;
20241;SDS011;10279;46.388;8.116;2023-02-28T08:53:45;1.67;;;1.17;;
20241;SDS011;10279;46.388;8.116;2023-02-28T08:56:12;1.80;;;0.80;;
20241;SDS011;10279;46.388;8.116;2023-02-28T08:58:43;0.83;;;0.80;;
20241;SDS011;10279;46.388;8.116;2023-02-28T09:01:19;2.80;;;1.00;;
20241;SDS011;10279;46.388;8.116;2023-02-28T09:03:48;1.33;;;0.80;;
20241;SDS011;10279;46.388;8.116;2023-02-28T09:06:17;1.53;;;1.00;;
20241;SDS011;10279;46.388;8.116;2023-02-28T09:08:46;2.27;;;0.80;;
20241;SDS011;10279;46.388;8.116;2023-02-28T09:11:13;0.97;;;0.80;;
20241;SDS011;10279;46.388;8.116;2023-02-28T09:13:41;0.40;;;0.40;;
20241;SDS011;10279;46.388;8.116;2023-02-28T09:16:10;0.93;;;0.60;;
20241;SDS011;10279;46.388;8.116;2023-02-28T09:18:43;0.50;;;0.43;;
20241;SDS011;10279;46.388;8.116;2023-02-28T09:21:12;0.50;;;0.47;;
20241;SDS011;10279;46.388;8.116;2023-02-28T09:23:44;0.43;;;0.43;;
20241;SDS011;10279;46.388;8.116;2023-02-28T09:26:14;0.63;;;0.37;;
20241;SDS011;10279;46.388;8.116;2023-02-28T09:28:41;0.60;;;0.50;;
20241;SDS011;10279;46.388;8.116;2023-02-28T09:31:16;0.40;;;0.40;;
20241;SDS011;10279;46.388;8.116;2023-02-28T09:33:48;1.30;;;0.50;;
20241;SDS011;10279;46.388;8.116;2023-02-28T09:36:16;0.47;;;0.40;;
20241;SDS011;10279;46.388;8.116;2023-02-28T09:38:44;0.40;;;0.40;;
20241;SDS011;10279;46.388;8.116;2023-02-28T09:41:19;0.53;;;0.50;;
20241;SDS011;10279;46.388;8.116;2023-02-28T09:43:52;0.40;;;0.40;;
20241;SDS011;10279;46.388;8.116;2023-02-28T09:49:17;0.70;;;0.50;;
20241;SDS011;10279;46.388;8.116;2023-02-28T09:51:56;0.47;;;0.40;;
20241;SDS011;10279;46.388;8.116;2023-02-28T09:54:31;0.40;;;0.40;;
20241;SDS011;10279;46.388;8.116;2023-02-28T09:57:01;0.40;;;0.37;;
20241;SDS011;10279;46.388;8.116;2023-02-28T10:05:41;0.30;;;0.30;;
20241;SDS011;10279;46.388;8.116;2023-02-28T10:08:17;0.53;;;0.50;;
20241;SDS011;10279;46.388;8.116;2023-02-28T10:10:53;0.60;;;0.53;;
20241;SDS011;10279;46.388;8.116;2023-02-28T10:16:52;0.57;;;0.57;;
20241;SDS011;10279;46.388;8.116;2023-02-28T10:20:13;1.53;;;0.60;;
20241;SDS011;10279;46.388;8.116;2023-02-28T10:22:21;0.83;;;0.40;;
20241;SDS011;10279;46.388;8.116;2023-02-28T10:25:00;0.40;;;0.40;;
20241;SDS011;10279;46.388;8.116;2023-02-28T10:27:32;0.60;;;0.60;;
20241;SDS011;10279;46.388;8.116;2023-02-28T10:30:00;0.70;;;0.70;;
20241;SDS011;10279;46.388;8.116;2023-02-28T10:32:29;0.60;;;0.60;;
20241;SDS011;10279;46.388;8.116;2023-02-28T10:37:49;1.80;;;0.70;;
20241;SDS011;10279;46.388;8.116;2023-02-28T10:42:56;0.50;;;0.50;;
20241;SDS011;10279;46.388;8.116;2023-02-28T10:45:32;0.50;;;0.50;;
20241;SDS011;10279;46.388;8.116;2023-02-28T11:01:24;1.57;;;0.60;;
20241;SDS011;10279;46.388;8.116;2023-02-28T11:04:16;0.60;;;0.60;;
20241;SDS011;10279;46.388;8.116;2023-02-28T11:06:46;0.70;;;0.70;;
20241;SDS011;10279;46.388;8.116;2023-02-28T11:09:35;1.33;;;0.77;;
20241;SDS011;10279;46.388;8.116;2023-02-28T11:12:03;0.80;;;0.80;;
20241;SDS011;10279;46.388;8.116;2023-02-28T11:14:36;1.17;;;0.80;;
20241;SDS011;10279;46.388;8.116;2023-02-28T11:17:17;0.77;;;0.77;;
20241;SDS011;10279;46.388;8.116;2023-02-28T11:19:51;3.33;;;0.70;;
20241;SDS011;10279;46.388;8.116;2023-02-28T11:22:31;0.80;;;0.80;;
20241;SDS011;10279;46.388;8.116;2023-02-28T11:25:15;0.60;;;0.60;;
20241;SDS011;10279;46.388;8.116;2023-02-28T11:27:54;1.60;;;1.00;;
20241;SDS011;10279;46.388;8.116;2023-02-28T11:30:29;1.00;;;1.00;;
20241;SDS011;10279;46.388;8.116;2023-02-28T11:33:27;2.23;;;1.00;;
20241;SDS011;10279;46.388;8.116;2023-02-28T11:36:00;1.23;;;1.07;;
20241;SDS011;10279;46.388;8.116;2023-02-28T11:38:31;1.60;;;0.90;;
20241;SDS011;10279;46.388;8.116;2023-02-28T11:43:39;2.10;;;1.00;;
20241;SDS011;10279;46.388;8.116;2023-02-28T11:46:33;1.00;;;1.00;;
20241;SDS011;10279;46.388;8.116;2023-02-28T11:54:30;1.23;;;0.80;;
20241;SDS011;10279;46.388;8.116;2023-02-28T12:00:03;0.70;;;0.70;;
20241;SDS011;10279;46.388;8.116;2023-02-28T12:10:57;0.83;;;0.80;;
20241;SDS011;10279;46.388;8.116;2023-02-28T12:13:40;0.97;;;0.90;;
20241;SDS011;10279;46.388;8.116;2023-02-28T12:18:57;0.77;;;0.77;;
20241;SDS011;10279;46.388;8.116;2023-02-28T12:27:19;0.73;;;0.70;;
20241;SDS011;10279;46.388;8.116;2023-02-28T12:30:25;0.80;;;0.80;;
20241;SDS011;10279;46.388;8.116;2023-02-28T12:32:56;1.73;;;0.60;;
20241;SDS011;10279;46.388;8.116;2023-02-28T12:35:31;0.50;;;0.50;;
20241;SDS011;10279;46.388;8.116;2023-02-28T12:38:06;1.00;;;0.60;;
20241;SDS011;10279;46.388;8.116;2023-02-28T12:43:19;0.50;;;0.50;;
20241;SDS011;10279;46.388;8.116;2023-02-28T12:45:52;0.50;;;0.50;;
20241;SDS011;10279;46.388;8.116;2023-02-28T12:48:29;0.90;;;0.70;;
20241;SDS011;10279;46.388;8.116;2023-02-28T12:51:05;0.80;;;0.50;;
20241;SDS011;10279;46.388;8.116;2023-02-28T12:56:50;0.50;;;0.50;;
20241;SDS011;10279;46.388;8.116;2023-02-28T12:59:36;1.03;;;0.60;;
20241;SDS011;10279;46.388;8.116;2023-02-28T13:10:23;1.17;;;0.77;;
20241;SDS011;10279;46.388;8.116;2023-02-28T13:12:52;0.50;;;0.40;;
20241;SDS011;10279;46.388;8.116;2023-02-28T13:15:22;0.60;;;0.60;;
20241;SDS011;10279;46.388;8.116;2023-02-28T13:17:55;0.57;;;0.57;;
20241;SDS011;10279;46.388;8.116;2023-02-28T13:20:25;0.63;;;0.60;;
20241;SDS011;10279;46.388;8.116;2023-02-28T13:23:03;0.50;;;0.50;;
20241;SDS011;10279;46.388;8.116;2023-02-28T13:25:51;0.60;;;0.60;;
20241;SDS011;10279;46.388;8.116;2023-02-28T13:28:56;0.80;;;0.60;;
20241;SDS011;10279;46.388;8.116;2023-02-28T13:31:24;0.70;;;0.70;;
20241;SDS011;10279;46.388;8.116;2023-02-28T13:36:29;0.40;;;0.40;;
20241;SDS011;10279;46.388;8.116;2023-02-28T13:38:58;0.70;;;0.70;;
20241;SDS011;10279;46.388;8.116;2023-02-28T13:41:49;0.50;;;0.50;;
20241;SDS011;10279;46.388;8.116;2023-02-28T13:44:17;1.70;;;0.67;;
20241;SDS011;10279;46.388;8.116;2023-02-28T13:51:49;0.97;;;0.50;;
20241;SDS011;10279;46.388;8.116;2023-02-28T14:00:05;0.50;;;0.50;;
20241;SDS011;10279;46.388;8.116;2023-02-28T14:02:51;0.40;;;0.40;;
20241;SDS011;10279;46.388;8.116;2023-02-28T14:05:27;1.37;;;0.60;;
20241;SDS011;10279;46.388;8.116;2023-02-28T14:07:57;1.30;;;0.43;;
20241;SDS011;10279;46.388;8.116;2023-02-28T14:10:30;0.50;;;0.50;;
20241;SDS011;10279;46.388;8.116;2023-02-28T14:13:00;0.53;;;0.40;;
20241;SDS011;10279;46.388;8.116;2023-02-28T14:15:47;0.70;;;0.60;;
20241;SDS011;10279;46.388;8.116;2023-02-28T14:24:16;0.40;;;0.40;;
20241;SDS011;10279;46.388;8.116;2023-02-28T14:29:59;0.40;;;0.40;;
20241;SDS011;10279;46.388;8.116;2023-02-28T14:38:48;0.27;;;0.27;;
20241;SDS011;10279;46.388;8.116;2023-02-28T14:41:21;0.40;;;0.40;;
20241;SDS011;10279;46.388;8.116;2023-02-28T14:43:49;0.33;;;0.33;;
20241;SDS011;10279;46.388;8.116;2023-02-28T14:46:19;1.07;;;0.40;;
20241;SDS011;10279;46.388;8.116;2023-02-28T14:48:47;1.20;;;0.30;;
20241;SDS011;10279;46.388;8.116;2023-02-28T14:51:23;0.30;;;0.30;;
20241;SDS011;10279;46.388;8.116;2023-02-28T14:53:56;0.40;;;0.30;;
20241;SDS011;10279;46.388;8.116;2023-02-28T14:56:27;0.63;;;0.30;;
20241;SDS011;10279;46.388;8.116;2023-02-28T14:59:00;0.40;;;0.40;;
20241;SDS011;10279;46.388;8.116;2023-02-28T15:01:28;0.30;;;0.30;;
20241;SDS011;10279;46.388;8.116;2023-02-28T15:03:59;1.03;;;0.33;;
20241;SDS011;10279;46.388;8.116;2023-02-28T15:06:29;0.40;;;0.40;;
20241;SDS011;10279;46.388;8.116;2023-02-28T15:09:15;0.30;;;0.30;;
20241;SDS011;10279;46.388;8.116;2023-02-28T15:11:45;0.20;;;0.20;;
20241;SDS011;10279;46.388;8.116;2023-02-28T15:14:16;0.40;;;0.40;;
20241;SDS011;10279;46.388;8.116;2023-02-28T15:16:47;0.20;;;0.20;;
20241;SDS011;10279;46.388;8.116;2023-02-28T15:19:28;1.03;;;0.27;;
20241;SDS011;10279;46.388;8.116;2023-02-28T15:22:06;0.47;;;0.30;;
20241;SDS011;10279;46.388;8.116;2023-02-28T15:24:45;0.77;;;0.37;;
20241;SDS011;10279;46.388;8.116;2023-02-28T15:27:24;0.20;;;0.20;;
20241;SDS011;10279;46.388;8.116;2023-02-28T15:29:59;0.37;;;0.37;;
20241;SDS011;10279;46.388;8.116;2023-02-28T15:32:33;0.97;;;0.33;;
20241;SDS011;10279;46.388;8.116;2023-02-28T15:38:04;0.83;;;0.30;;
20241;SDS011;10279;46.388;8.116;2023-02-28T15:40:53;0.13;;;0.13;;
20241;SDS011;10279;46.388;8.116;2023-02-28T15:46:09;0.20;;;0.20;;
20241;SDS011;10279;46.388;8.116;2023-02-28T15:48:52;0.83;;;0.30;;
20241;SDS011;10279;46.388;8.116;2023-02-28T15:51:22;0.20;;;0.20;;
20241;SDS011;10279;46.388;8.116;2023-02-28T15:54:02;0.63;;;0.20;;
20241;SDS011;10279;46.388;8.116;2023-02-28T15:56:35;0.20;;;0.20;;
20241;SDS011;10279;46.388;8.116;2023-02-28T15:59:17;0.10;;;0.10;;
20241;SDS011;10279;46.388;8.116;2023-02-28T16:02:29;0.20;;;0.20;;
20241;SDS011;10279;46.388;8.116;2023-02-28T16:07:40;0.10;;;0.10;;
20241;SDS011;10279;46.388;8.116;2023-02-28T16:10:11;0.83;;;0.30;;
20241;SDS011;10279;46.388;8.116;2023-02-28T16:12:40;0.20;;;0.20;;
20241;SDS011;10279;46.388;8.116;2023-02-28T16:15:22;0.73;;;0.50;;
20241;SDS011;10279;46.388;8.116;2023-02-28T16:17:52;1.27;;;0.33;;
20241;SDS011;10279;46.388;8.116;2023-02-28T16:22:49;0.63;;;0.60;;
20241;SDS011;10279;46.388;8.116;2023-02-28T16:25:18;0.50;;;0.50;;
20241;SDS011;10279;46.388;8.116;2023-02-28T16:27:48;0.20;;;0.20;;
20241;SDS011;10279;46.388;8.116;2023-02-28T16:30:20;0.57;;;0.43;;
20241;SDS011;10279;46.388;8.116;2023-02-28T16:32:53;0.23;;;0.23;;
20241;SDS011;10279;46.388;8.116;2023-02-28T16:35:22;0.47;;;0.47;;
20241;SDS011;10279;46.388;8.116;2023-02-28T16:37:52;0.93;;;0.67;;
20241;SDS011;10279;46.388;8.116;2023-02-28T16:40:21;1.77;;;0.30;;
20241;SDS011;10279;46.388;8.116;2023-02-28T16:42:52;0.33;;;0.27;;
20241;SDS011;10279;46.388;8.116;2023-02-28T16:45:25;0.20;;;0.20;;
20241;SDS011;10279;46.388;8.116;2023-02-28T16:47:54;0.30;;;0.30;;
20241;SDS011;10279;46.388;8.116;2023-02-28T16:50:25;1.00;;;0.30;;
20241;SDS011;10279;46.388;8.116;2023-02-28T16:52:55;0.67;;;0.40;;
20241;SDS011;10279;46.388;8.116;2023-02-28T16:55:22;3.50;;;0.60;;
20241;SDS011;10279;46.388;8.116;2023-02-28T16:57:52;0.80;;;0.60;;
20241;SDS011;10279;46.388;8.116;2023-02-28T17:00:21;3.17;;;1.90;;
20241;SDS011;10279;46.388;8.116;2023-02-28T17:02:49;1.47;;;1.37;;
20241;SDS011;10279;46.388;8.116;2023-02-28T17:05:17;1.50;;;1.30;;
20241;SDS011;10279;46.388;8.116;2023-02-28T17:07:45;1.00;;;0.60;;
20241;SDS011;10279;46.388;8.116;2023-02-28T17:10:24;3.40;;;0.37;;
20241;SDS011;10279;46.388;8.116;2023-02-28T17:12:52;0.30;;;0.30;;
20241;SDS011;10279;46.388;8.116;2023-02-28T17:15:28;0.40;;;0.40;;
20241;SDS011;10279;46.388;8.116;2023-02-28T17:17:57;3.53;;;2.27;;
20241;SDS011;10279;46.388;8.116;2023-02-28T17:20:24;1.20;;;1.10;;
20241;SDS011;10279;46.388;8.116;2023-02-28T17:22:53;2.47;;;1.80;;
20241;SDS011;10279;46.388;8.116;2023-02-28T17:25:21;1.80;;;1.70;;
20241;SDS011;10279;46.388;8.116;2023-02-28T17:27:49;2.67;;;1.50;;
20241;SDS011;10279;46.388;8.116;2023-02-28T17:30:23;1.40;;;0.70;;
20241;SDS011;10279;46.388;8.116;2023-02-28T17:32:54;0.70;;;0.47;;
20241;SDS011;10279;46.388;8.116;2023-02-28T17:35:22;1.33;;;0.60;;
20241;SDS011;10279;46.388;8.116;2023-02-28T17:37:50;1.87;;;0.90;;
20241;SDS011;10279;46.388;8.116;2023-02-28T17:40:19;0.77;;;0.60;;
20241;SDS011;10279;46.388;8.116;2023-02-28T17:42:47;1.10;;;0.70;;
20241;SDS011;10279;46.388;8.116;2023-02-28T17:45:14;0.80;;;0.40;;
20241;SDS011;10279;46.388;8.116;2023-02-28T17:47:43;0.40;;;0.40;;
20241;SDS011;10279;46.388;8.116;2023-02-28T17:50:14;1.27;;;0.90;;
20241;SDS011;10279;46.388;8.116;2023-02-28T17:52:43;0.70;;;0.40;;
20241;SDS011;10279;46.388;8.116;2023-02-28T17:55:10;0.50;;;0.50;;
20241;SDS011;10279;46.388;8.116;2023-02-28T17:57:38;0.47;;;0.47;;
20241;SDS011;10279;46.388;8.116;2023-02-28T18:00:10;0.37;;;0.33;;
20241;SDS011;10279;46.388;8.116;2023-02-28T18:02:39;1.60;;;0.60;;
20241;SDS011;10279;46.388;8.116;2023-02-28T18:05:07;0.50;;;0.50;;
20241;SDS011;10279;46.388;8.116;2023-02-28T18:07:36;0.30;;;0.30;;